Weerspreuk van de week. Houden de kraaien voor Allerheiligen al school, zorg dan voor hout en kool.
Es ist keine erhöhte Aufmerksamkeit aufgrund des Wetters notwendig.    Es gibt keine Warnungen.

Thunder radar more information blitzortung!


Rain radar more information rain snow radar


Bekijk deze sites ook eens:

FPL Automotive (TIP)

Autostekkers.nl (TIP)

Over Luyksgestel

De Kempen, mijn omgeving

BOL.com

Weerstation Noordbergum

Inktweb

Weerstation Hapert

Weerstation Hoogeloon

Weerstation Son&Breugel

Weerstation Castaert

Smartphonehoesjes

Weerstation Tilburg Reeshof

Weerstation Scheulder

Weerverwachting Samos

Samos actueel

Weerwoord (forum)

Griekenlandforum

Vakantie naar Samos

Zomerzon

Canon

Wolven in Nederland



METAR-Meldungen aus der Umgebung

   
EBAW - Antwerp
Aktualisierung: 15-11-2019 20:50
Stark bewölkt  
Stark bewölkt  
   Wind: Süden 22.2 km/h
Wind: Süden 22.2 km/h
Temperatur: 6°C
Gefühlt: 2°C
Taupunkt: 1°C
Luftfeuchte: 71%
Luftdruck: 1003 hPa
Bewölkt: Stark bewölkt
Sichtbarkeit: More than 10 km
Bewölkung: Stark bewölkt 2700 ft
EBAW 151950Z 17012KT 9999 BKN027 06/01 Q1003 NOSIG
EBLG - Liège
Aktualisierung: 15-11-2019 20:50
leicht bewölkt  
leicht bewölkt  
   Wind: SSO 9.3 km/h
Wind: SSO 9.3 km/h
Temperatur: 5°C
Gefühlt: 3°C
Taupunkt: 0°C
Luftfeuchte: 70%
Luftdruck: 1002 hPa
Bewölkt: leicht bewölkt
Sichtbarkeit: More than 10 km
Bewölkung: leicht bewölkt 2400 ft
EBLG 151950Z 16005KT 9999 FEW024 05/00 Q1002 NOSIG
EBCV - Mons/Bergen
Aktualisierung: 15-11-2019 21:03
Stark bewölkt  
Stark bewölkt  
   Wind: SO 9.3 km/h
Wind: SO 9.3 km/h
Temperatur: 4°C
Gefühlt: 2°C
Taupunkt: 1°C
Luftfeuchte: 81%
Luftdruck: 1001 hPa
Bewölkt: Stark bewölkt
Sichtbarkeit: More than 10 km
Bewölkung: Stark bewölkt 2400 ft
EBCV 152003Z AUTO 13005KT 9999 BKN024/// 04/01 Q1001 WHT
EHBK - Maastricht
Aktualisierung: 15-11-2019 20:55
Bewölkt  
Bewölkt  
   Wind: Süden 7.4 km/h
Wind: Süden 7.4 km/h
Temperatur: 5°C
Gefühlt: 3°C
Taupunkt: 1°C
Luftfeuchte: 76%
Luftdruck: 1003 hPa
Bewölkt: Bewölkt
Sichtbarkeit: More than 10 km
Bewölkung: Bewölkt 2500 ft
EHBK 151955Z AUTO 18004KT 150V220 9999 OVC025 05/01 Q1003 NOSIG
ELLX - Luxemburg
Aktualisierung: 15-11-2019 20:50
Stark bewölkt  
Stark bewölkt  
   Wind: Süden 9.3 km/h
Wind: Süden 9.3 km/h
Temperatur: 3°C
Gefühlt: 1°C
Taupunkt: 1°C
Luftfeuchte: 87%
Luftdruck: 1002 hPa
Bewölkt: Stark bewölkt
Sichtbarkeit: More than 10 km
Bewölkung: Stark bewölkt 1800 ft
ELLX 151950Z 17005KT 140V200 9999 BKN018 03/01 Q1002 NOSIG
EBOS - Oostende
Aktualisierung: 15-11-2019 20:50
Stark bewölkt  
Stark bewölkt  
   Wind: SO 13 km/h
Wind: SO 13 km/h
Temperatur: 5°C
Gefühlt: 2°C
Taupunkt: 2°C
Luftfeuchte: 81%
Luftdruck: 1001 hPa
Bewölkt: Stark bewölkt
Sichtbarkeit: More than 10 km
Bewölkung: leicht bewölkt 1700 ft,
Stark bewölkt 2500 ft
EBOS 151950Z 13007KT 9999 FEW017 BKN025 05/02 Q1001 NOSIG

Script entwickelt von  Saratoga-weather.org Angepasst für das Template von  Weerstation Leuven

Sie finden unser Wetter-Infos auch auf:

Het Weer Aktueel

UK Metoffice

European Weather Network

Weather Underground

AWEKAS